Flight Track Log - Related Links

Times and Time Zones

All times are in EST time to prevent confusion due to time zone crossing. See the BJS339 flight status page for this flight to view local times or setup timezone preferences in your user account.

Time Position Orientation Groundspeed Altitude Reporting Facility
EST Latitude Longitude Course Direction KTS MPH feet Rate Location/Type
Sun 02:22:48 PM 39.8167 -104.8167 249° West 245 282 7,900  Level Denver TRACON
Sun 02:23:54 PM 39.8000 -104.9167 258° West 270 311 11,100 2,727 Climbing Denver TRACON
Sun 02:25:00 PM 39.7667 -105.0333 250° West 314 361 13,900 2,500 Climbing Denver TRACON
Sun 02:26:06 PM 39.7167 -105.1500 241° Southwest 353 406 16,600 2,426 Climbing Denver TRACON
Sun 02:27:16 PM 39.6747 -105.2858 248° West 372 428 19,400 2,500 Climbing Denver Center
Sun 02:28:00 PM 39.5649 -105.4880 249° West  Level Estimated
Sun 02:28:18 PM 39.6253 -105.4214 245° Southwest 386 444 22,100  Level Denver Center
Sun 02:29:21 PM 39.5806 -105.5447 245° Southwest 391 450 24,100 1,776 Climbing Denver Center
Sun 02:30:23 PM 39.5350 -105.6825 247° West 418 481 25,800 1,500 Climbing Denver Center
Sun 02:31:25 PM 39.4956 -105.8239 250° West 421 484 27,200 1,548 Climbing Denver Center
Sun 02:32:27 PM 39.4492 -105.9983 251° West 429 494 29,000 1,403 Climbing Denver Center
Sun 02:33:29 PM 39.4075 -106.1456 250° West 437 503 30,100 968 Climbing Denver Center
Sun 02:34:31 PM 39.3658 -106.2939 250° West 439 505 31,000 968 Climbing Denver Center
Sun 02:35:33 PM 39.3178 -106.4594 249° West 441 507 32,100 1,016 Climbing Denver Center
Sun 02:36:35 PM 39.2764 -106.6028 250° West 443 510 33,100 919 Climbing Denver Center
Sun 02:37:37 PM 39.2292 -106.7411 246° West 440 506 34,000 968 Climbing Denver Center
Sun 02:38:39 PM 39.1400 -106.8825 231° Southwest 452 520 35,100 968 Climbing Denver Center
Sun 02:39:41 PM 39.0583 -107.0056 230° Southwest 463 533 36,000 871 Climbing Denver Center
Sun 02:40:43 PM 38.9683 -107.1444 230° Southwest 455 524 36,900 816 Climbing Denver Center
Sun 02:41:46 PM 38.8917 -107.2633 230° Southwest 450 518 37,700 816 Climbing Denver Center
Sun 02:42:48 PM 38.8047 -107.3992 231° Southwest 444 511 38,600 677 Climbing Denver Center
Sun 02:43:50 PM 38.7294 -107.5144 230° Southwest 441 507 39,100 484 Climbing Denver Center
Sun 02:44:52 PM 38.6403 -107.6500 230° Southwest 444 511 39,600 290 Climbing Denver Center
Sun 02:46:56 PM 38.4764 -107.8994 228° Southwest 440 506 40,000 129 Climbing Denver Center
Sun 02:47:58 PM 38.3986 -108.0153 229° Southwest 445 512 40,000  Level Denver Center
Sun 02:49:00 PM 38.3061 -108.1564 230° Southwest 459 528 40,000  Level Denver Center
Sun 02:50:02 PM 38.2253 -108.2753 229° Southwest 463 533 40,000  Level Denver Center
Sun 02:51:04 PM 38.1467 -108.3978 231° Southwest 463 533 40,000  Level Denver Center
Sun 02:52:06 PM 38.0708 -108.5500 238° Southwest 455 524 40,000  Level Denver Center
Sun 02:53:08 PM 37.9964 -108.6908 236° Southwest 453 521 40,000  Level Denver Center
Sun 02:54:11 PM 37.9286 -108.8231 237° Southwest 460 529 40,000  Level Denver Center
Sun 02:55:13 PM 37.8497 -108.9792 237° Southwest 469 540 40,000  Level Denver Center
Sun 02:56:15 PM 37.7819 -109.1094 237° Southwest 466 536 40,000  Level Denver Center
Sun 02:57:17 PM 37.7033 -109.2614 237° Southwest 464 534 40,000  Level Denver Center
Sun 02:58:19 PM 37.6356 -109.3922 237° Southwest 465 535 40,000  Level Denver Center
Sun 02:59:21 PM 37.5564 -109.5436 237° Southwest 464 534 40,000  Level Denver Center
Sun 03:00:23 PM 37.4881 -109.6728 236° Southwest 464 534 40,000  Level Denver Center
Sun 03:01:25 PM 37.4089 -109.8231 236° Southwest 463 533 40,000  Level Denver Center
Sun 03:02:27 PM 37.3397 -109.9519 236° Southwest 465 535 40,000  Level Denver Center
Sun 03:03:30 PM 37.2597 -110.1028 236° Southwest 465 535 40,000  Level Denver Center
Sun 03:04:32 PM 37.1958 -110.2200 236° Southwest 465 535 40,000  Level Denver Center
Sun 03:05:34 PM 37.1089 -110.3817 236° Southwest 466 536 40,000  Level Denver Center
Sun 03:06:36 PM 37.0364 -110.5169 236° Southwest 467 537 40,000  Level Denver Center
Sun 03:07:38 PM 36.9636 -110.6500 236° Southwest 464 534 40,000  Level Denver Center
Sun 03:08:40 PM 36.8914 -110.7822 236° Southwest 463 533 40,000  Level Denver Center
Sun 03:09:42 PM 36.8222 -110.9081 236° Southwest 442 509 40,000  Level Denver Center
Sun 03:10:44 PM 36.7561 -111.0325 236° Southwest 432 497 40,000  Level Denver Center
Sun 03:11:46 PM 36.6717 -111.1861 236° Southwest 441 507 40,000  Level Denver Center
Sun 03:12:48 PM 36.5992 -111.3153 235° Southwest 449 517 40,000  Level Denver Center
Sun 03:13:50 PM 36.5289 -111.4414 235° Southwest 447 514 40,000  Level Denver Center
Sun 03:14:53 PM 36.4592 -111.5678 236° Southwest 445 512 40,000  Level Denver Center
Sun 03:15:43 PM 36.4000 -111.6694 234° Southwest 444 511 40,000  Level Los Angeles Center
Sun 03:16:45 PM 36.3303 -111.7964 236° Southwest 445 512 40,000  Level Los Angeles Center
Sun 03:17:47 PM 36.2436 -111.9489 235° Southwest 451 519 40,000  Level Los Angeles Center
Sun 03:18:49 PM 36.1764 -112.0703 236° Southwest 458 527 40,000  Level Los Angeles Center
Sun 03:19:51 PM 36.1028 -112.1981 235° Southwest 460 529 40,000  Level Los Angeles Center
Sun 03:20:54 PM 36.0264 -112.3336 235° Southwest 449 517 40,000  Level Los Angeles Center
Sun 03:21:56 PM 35.9539 -112.4597 235° Southwest 448 516 40,000  Level Los Angeles Center
Sun 03:22:58 PM 35.8742 -112.6003 235° Southwest 453 521 40,000  Level Los Angeles Center
Sun 03:24:00 PM 35.8039 -112.7233 235° Southwest 446 513 40,000  Level Los Angeles Center
Sun 03:25:02 PM 35.7342 -112.8425 234° Southwest 438 504 40,000  Level Los Angeles Center
Sun 03:26:04 PM 35.6594 -112.9703 234° Southwest 444 511 40,000  Level Los Angeles Center
Sun 03:27:06 PM 35.5861 -113.0947 234° Southwest 448 516 40,000  Level Los Angeles Center
Sun 03:28:08 PM 35.4986 -113.2439 234° Southwest 448 516 40,000  Level Los Angeles Center
Sun 03:29:11 PM 35.4339 -113.3569 235° Southwest 450 518 40,000  Level Los Angeles Center
Sun 03:30:13 PM 35.3611 -113.4786 234° Southwest 448 516 40,000  Level Los Angeles Center
Sun 03:31:15 PM 35.2728 -113.6269 234° Southwest 452 520 40,000  Level Los Angeles Center
Sun 03:32:17 PM 35.2008 -113.7494 234° Southwest 449 517 40,000  Level Los Angeles Center
Sun 03:33:19 PM 35.1286 -113.8706 234° Southwest 444 511 40,000  Level Los Angeles Center
Sun 03:34:21 PM 35.0456 -114.0111 234° Southwest 447 514 40,000  Level Los Angeles Center
Sun 03:35:23 PM 34.9725 -114.1325 234° Southwest 443 510 40,000  Level Los Angeles Center
Sun 03:36:26 PM 34.8992 -114.2533 234° Southwest 443 510 40,000  Level Los Angeles Center
Sun 03:37:28 PM 34.8264 -114.3756 234° Southwest 444 511 40,000  Level Los Angeles Center
Sun 03:38:30 PM 34.7553 -114.4958 234° Southwest 438 504 40,000  Level Los Angeles Center
Sun 03:39:32 PM 34.6986 -114.6247 242° Southwest 432 497 40,000 -145 Level Los Angeles Center
Sun 03:40:34 PM 34.6350 -114.7672 242° Southwest 433 498 39,700 -629 Descending Los Angeles Center
Sun 03:41:36 PM 34.5753 -114.9000 241° Southwest 443 510 38,700 -1,113 Descending Los Angeles Center
Sun 03:42:38 PM 34.5167 -115.0311 242° Southwest 444 511 37,400 -1,536 Descending Los Angeles Center
Sun 03:43:41 PM 34.4447 -115.1869 241° Southwest 442 509 35,500 -1,776 Descending Los Angeles Center
Sun 03:44:43 PM 34.3850 -115.3192 241° Southwest 445 512 33,700 -1,694 Descending Los Angeles Center
Sun 03:45:45 PM 34.3258 -115.4492 241° Southwest 444 511 32,000 -1,645 Descending Los Angeles Center
Sun 03:46:47 PM 34.2664 -115.5781 241° Southwest 441 507 30,300 -1,645 Descending Los Angeles Center
Sun 03:47:49 PM 34.1925 -115.6947 233° Southwest 442 509 28,600 -1,645 Descending Los Angeles Center
Sun 03:48:51 PM 34.1353 -115.8228 242° Southwest 434 499 26,900 -1,484 Descending Los Angeles Center
Sun 03:50:55 PM 34.0378 -116.0969 243° Southwest 408 470 24,000 -930 Descending Los Angeles Center
Sun 03:51:58 PM 34.0131 -116.2256 257° West 396 456 24,000 -576 Level Los Angeles Center
Sun 03:53:00 PM 33.9875 -116.3578 257° West 404 465 22,800 -1,694 Descending Los Angeles Center
Sun 03:54:02 PM 33.9619 -116.4875 257° West 401 461 20,500 -2,468 Descending Los Angeles Center
Sun 03:55:04 PM 33.9325 -116.6372 257° West 388 447 17,700 -2,419 Descending Los Angeles Center
Sun 03:56:06 PM 33.9081 -116.7622 257° West 387 445 15,500 -1,839 Descending Los Angeles Center
Sun 03:57:08 PM 33.8792 -116.8864 254° West 387 445 13,900 -823 Descending Los Angeles Center
Sun 03:58:10 PM 33.8614 -117.0117 260° West 385 443 13,800 -774 Descending Los Angeles Center
Sun 03:59:12 PM 33.8422 -117.1511 261° West 390 449 12,300 -1,306 Descending Los Angeles Center
Sun 04:00:14 PM 33.8267 -117.2656 261° West 356 410 11,100 -1,016 Descending Los Angeles Center
Sun 04:01:16 PM 33.8136 -117.3611 261° West 299 344 10,200 -871 Descending Los Angeles Center
Sun 04:02:18 PM 33.8003 -117.4558 260° West 288 331 9,300 -912 Descending Los Angeles Center
Sun 04:03:21 PM 33.7864 -117.5589 261° West 264 304 8,300 -864 Descending Los Angeles Center
Sun 04:04:23 PM 33.7742 -117.6358 259° West 242 278 7,500 -1,171 Descending Los Angeles Center
Sun 04:05:24 PM 33.7333 -117.7167 239° Southwest 240 276 5,900 -1,438 Descending Southern California TRACON
Sun 04:06:24 PM 33.7167 -117.7833 253° West 227 261 4,600 -950 Descending Southern California TRACON
Sun 04:07:24 PM 33.7000 -117.8500 253° West 209 241 4,000 -600 Descending Southern California TRACON
Sun 04:08:24 PM 33.6833 -117.9167 253° West 212 244 3,400 -1,041 Descending Southern California TRACON
Sun 04:09:25 PM 33.6833 -117.9833 270° West 200 230 1,900 -893 Descending Southern California TRACON
Sun 04:10:25 PM 33.7167 -118.0333 309° West 182 209 1,600 -150 Descending Southern California TRACON
Sun 04:11:25 PM 33.7500 -118.0667 320° Northwest 171 197 1,600 -300 Level Southern California TRACON
Sun 04:12:25 PM 33.7833 -118.1000 320° Northwest 134 154 1,000 -645 Descending Southern California TRACON
Sun 04:13:26 PM 33.8000 -118.1333 301° West 130 150 300 -689 Descending Southern California TRACON
Sun 04:15:00 PM 33.8167 -118.1500 292° West  Level FlightAware Approximate
Sun 04:22:00 PM 33.8177 -118.1517 292° West  Level Estimated
Sun 04:23:00 PM 33.8167 -118.1500 292° West  Level FlightAware Approximate

Login

Don't have an account? Register now (free) for customized features, flight alerts, and more!